Time;durP1;ratioP1;P1;durP2;ratioP2;P2;SDS_P1;SDS_P2;PMS_P1;PMS_P2;Temp;Humidity;BMP_temperature;BMP_pressure;BME280_temperature;BME280_humidity;BME280_pressure;Samples;Min_cycle;Max_cycle;Signal;HPM_P1;HPM_P2
2023/07/22 00:02:00;;;;;;;;;;;14.70;82.20;;;;;;4974551;28;20040;-80
2023/07/22 00:04:26;;;;;;;;;;;14.70;82.50;;;;;;4963035;28;19918;-79
2023/07/22 00:06:52;;;;;;;;;;;14.70;82.90;;;;;;4976948;28;19926;-80
2023/07/22 00:09:17;;;;;;;;;;;14.70;82.50;;;;;;4956745;28;19933;-80
2023/07/22 00:11:43;;;;;;;;;;;14.70;82.50;;;;;;4956512;28;19910;-80
2023/07/22 00:14:09;;;;;;;;;;;14.70;83.00;;;;;;4956516;28;19921;-80
2023/07/22 00:16:34;;;;;;;;;;;14.80;82.30;;;;;;4956335;28;19914;-80
2023/07/22 00:19:00;;;;;;;;;;;14.80;82.70;;;;;;4970020;28;19921;-80
2023/07/22 00:21:26;;;;;;;;;;;14.80;82.10;;;;;;4963976;28;19917;-79
2023/07/22 00:23:51;;;;;;;;;;;14.70;82.40;;;;;;4971419;28;19929;-80
2023/07/22 00:26:16;;;;;;;;;;;14.80;81.50;;;;;;4985477;28;20402;-80
2023/07/22 00:28:43;;;;;;;;;;;14.70;82.40;;;;;;4971220;28;19922;-80
2023/07/22 00:31:09;;;;;;;;;;;14.70;82.80;;;;;;4963458;28;19918;-80
2023/07/22 00:33:34;;;;;;;;;;;14.70;82.80;;;;;;4954360;28;19921;-80
2023/07/22 00:35:59;;;;;;;;;;;14.70;81.90;;;;;;4970298;28;19910;-80
2023/07/22 00:38:25;;;;;;;;;;;14.70;82.60;;;;;;4971628;28;19976;-80
2023/07/22 00:40:50;;;;;;;;;;;14.60;82.40;;;;;;4972395;28;19970;-80
2023/07/22 00:43:16;;;;;;;;;;;14.70;82.20;;;;;;4954818;28;20012;-80
2023/07/22 00:45:41;;;;;;;;;;;14.80;81.90;;;;;;4973920;28;19937;-81
2023/07/22 00:48:08;;;;;;;;;;;14.80;80.70;;;;;;4973868;28;19964;-80
2023/07/22 00:50:33;;;;;;;;;;;14.80;80.90;;;;;;4971740;28;19914;-80
2023/07/22 00:52:59;;;;;;;;;;;14.80;80.90;;;;;;4972470;28;19916;-80
2023/07/22 00:55:25;;;;;;;;;;;14.80;79.50;;;;;;4974195;28;19914;-80
2023/07/22 00:57:50;;;;;;;;;;;14.80;78.60;;;;;;4974221;28;19910;-80
2023/07/22 01:00:16;;;;;;;;;;;14.80;78.50;;;;;;4954805;28;19921;-80
2023/07/22 01:02:42;;;;;;;;;;;14.80;78.60;;;;;;4968459;28;19918;-80
2023/07/22 01:05:10;;;;;;;;;;;14.90;79.40;;;;;;4965922;28;19899;-80
2023/07/22 01:07:35;;;;;;;;;;;14.80;79.80;;;;;;4988956;28;19926;-80
2023/07/22 01:10:01;;;;;;;;;;;14.90;79.40;;;;;;4955117;28;19963;-80
2023/07/22 01:12:26;;;;;;;;;;;14.90;79.20;;;;;;4947869;28;19917;-80
2023/07/22 01:14:52;;;;;;;;;;;14.90;79.20;;;;;;4971541;28;19994;-80
2023/07/22 01:17:18;;;;;;;;;;;14.80;79.00;;;;;;4972897;28;19941;-80
2023/07/22 01:19:44;;;;;;;;;;;14.80;79.40;;;;;;4954604;28;19917;-80
2023/07/22 01:22:10;;;;;;;;;;;14.80;79.50;;;;;;4972310;28;19914;-80
2023/07/22 01:24:36;;;;;;;;;;;14.80;80.00;;;;;;4954084;28;20067;-80
2023/07/22 01:27:03;;;;;;;;;;;14.80;79.50;;;;;;4972025;28;20810;-80
2023/07/22 01:29:28;;;;;;;;;;;14.70;78.20;;;;;;4972734;28;20390;-80
2023/07/22 01:31:54;;;;;;;;;;;14.70;77.90;;;;;;4972134;28;19910;-80
2023/07/22 01:34:21;;;;;;;;;;;14.60;77.40;;;;;;4970960;28;20422;-80
2023/07/22 01:36:50;;;;;;;;;;;14.60;77.10;;;;;;4972558;28;20014;-81
2023/07/22 01:39:16;;;;;;;;;;;14.60;78.30;;;;;;4971506;28;19922;-80
2023/07/22 01:41:42;;;;;;;;;;;14.60;78.90;;;;;;4955513;28;20267;-79
2023/07/22 01:44:10;;;;;;;;;;;14.60;79.00;;;;;;4970892;28;19918;-80
2023/07/22 01:46:36;;;;;;;;;;;14.60;77.50;;;;;;4970448;28;19914;-80
2023/07/22 01:49:03;;;;;;;;;;;14.70;78.90;;;;;;4972482;28;19918;-80
2023/07/22 01:51:29;;;;;;;;;;;14.70;77.70;;;;;;4948270;28;19910;-80
2023/07/22 01:53:56;;;;;;;;;;;14.60;77.20;;;;;;4971539;28;19921;-80
2023/07/22 01:56:22;;;;;;;;;;;14.60;77.50;;;;;;4978832;28;20025;-80
2023/07/22 01:58:47;;;;;;;;;;;14.60;77.10;;;;;;4971553;28;19938;-80
2023/07/22 02:01:15;;;;;;;;;;;14.70;77.50;;;;;;4950915;28;19911;-80
2023/07/22 02:03:40;;;;;;;;;;;14.70;77.30;;;;;;4952549;28;19973;-80
2023/07/22 02:06:06;;;;;;;;;;;14.80;76.70;;;;;;4970641;28;20398;-80
2023/07/22 02:08:31;;;;;;;;;;;14.80;76.50;;;;;;4964225;28;19917;-80
2023/07/22 02:11:04;;;;;;;;;;;14.80;76.70;;;;;;4971502;28;20004;-80
2023/07/22 02:13:30;;;;;;;;;;;14.80;76.90;;;;;;4971126;28;19910;-80
2023/07/22 02:15:55;;;;;;;;;;;14.80;76.00;;;;;;4967773;28;20449;-80
2023/07/22 02:18:21;;;;;;;;;;;14.80;75.90;;;;;;4971981;28;19925;-80
2023/07/22 02:20:46;;;;;;;;;;;14.70;76.10;;;;;;4971870;28;19915;-80
2023/07/22 02:23:12;;;;;;;;;;;14.60;75.70;;;;;;4969513;28;19918;-80
2023/07/22 02:25:37;;;;;;;;;;;14.70;76.60;;;;;;4999787;28;19918;-80
2023/07/22 02:28:03;;;;;;;;;;;14.70;76.20;;;;;;4976644;28;20430;-80
2023/07/22 02:30:28;;;;;;;;;;;14.70;76.10;;;;;;4978459;28;20420;-80
2023/07/22 02:32:54;;;;;;;;;;;14.70;76.70;;;;;;4976260;28;20099;-80
2023/07/22 02:35:19;;;;;;;;;;;14.80;76.20;;;;;;4960614;28;19914;-80
2023/07/22 02:37:45;;;;;;;;;;;14.80;75.70;;;;;;4976795;28;19960;-80
2023/07/22 02:40:11;;;;;;;;;;;14.70;76.20;;;;;;4958773;28;19941;-80
2023/07/22 02:42:36;;;;;;;;;;;14.70;76.30;;;;;;4955541;28;19910;-80
2023/07/22 02:45:03;;;;;;;;;;;14.80;75.90;;;;;;4984000;28;19930;-80
2023/07/22 02:47:29;;;;;;;;;;;14.80;75.50;;;;;;4976120;28;20002;-80
2023/07/22 02:49:54;;;;;;;;;;;14.80;76.10;;;;;;4975412;28;20366;-80
2023/07/22 02:52:20;;;;;;;;;;;14.80;75.70;;;;;;4975455;28;19910;-81
2023/07/22 02:55:03;;;;;;;;;;;14.70;76.80;;;;;;4974371;28;19910;-80
2023/07/22 02:57:29;;;;;;;;;;;14.70;76.70;;;;;;4974389;28;19996;-80
2023/07/22 02:59:54;;;;;;;;;;;14.70;76.70;;;;;;4964755;28;19945;-79
2023/07/22 03:02:20;;;;;;;;;;;14.70;76.20;;;;;;4981536;28;19910;-80
2023/07/22 03:04:45;;;;;;;;;;;14.80;75.70;;;;;;4988298;28;20288;-80
2023/07/22 03:07:10;;;;;;;;;;;14.80;76.00;;;;;;4989493;28;20302;-80
2023/07/22 03:09:36;;;;;;;;;;;14.80;75.80;;;;;;4977043;28;20303;-80
2023/07/22 03:12:01;;;;;;;;;;;14.80;76.10;;;;;;4976624;28;20295;-80
2023/07/22 03:14:27;;;;;;;;;;;14.90;75.80;;;;;;4957035;28;20406;-80
2023/07/22 03:16:53;;;;;;;;;;;14.80;75.80;;;;;;4974466;28;19922;-80
2023/07/22 03:19:19;;;;;;;;;;;14.90;75.90;;;;;;4974392;28;19911;-80
2023/07/22 03:21:44;;;;;;;;;;;15.00;75.20;;;;;;4978523;28;19929;-81
2023/07/22 03:24:09;;;;;;;;;;;15.00;75.60;;;;;;4986367;28;20375;-80
2023/07/22 03:26:35;;;;;;;;;;;15.00;75.70;;;;;;4991011;22;19926;-90
2023/07/22 03:29:01;;;;;;;;;;;15.00;75.50;;;;;;5003785;28;19910;-89
2023/07/22 03:31:26;;;;;;;;;;;15.00;75.00;;;;;;4971631;28;20349;-89
2023/07/22 03:33:52;;;;;;;;;;;15.00;75.40;;;;;;4994827;28;19913;-89
2023/07/22 03:36:17;;;;;;;;;;;15.00;75.70;;;;;;4968301;28;19914;-89
2023/07/22 03:38:43;;;;;;;;;;;15.00;75.70;;;;;;4965921;28;19910;-89
2023/07/22 03:41:08;;;;;;;;;;;15.00;75.70;;;;;;4961596;28;19910;-90
2023/07/22 03:43:34;;;;;;;;;;;15.00;75.70;;;;;;4965475;28;19914;-90
2023/07/22 03:45:59;;;;;;;;;;;15.00;75.70;;;;;;4971069;28;19986;-90
2023/07/22 03:48:25;;;;;;;;;;;15.10;75.60;;;;;;4958932;28;19937;-90
2023/07/22 03:50:50;;;;;;;;;;;15.10;75.80;;;;;;4972255;28;19991;-89
2023/07/22 03:53:16;;;;;;;;;;;15.10;75.50;;;;;;4973996;28;19917;-91
2023/07/22 03:55:41;;;;;;;;;;;15.10;75.50;;;;;;4973361;28;20053;-89
2023/07/22 03:58:06;;;;;;;;;;;15.20;75.40;;;;;;4958742;28;19925;-90
2023/07/22 04:00:32;;;;;;;;;;;15.20;74.70;;;;;;4957994;28;20012;-90
2023/07/22 04:02:57;;;;;;;;;;;15.20;74.80;;;;;;4972449;28;19925;-90
2023/07/22 04:05:23;;;;;;;;;;;15.20;75.20;;;;;;4978883;28;19953;-89
2023/07/22 04:07:51;;;;;;;;;;;15.20;75.40;;;;;;4966166;28;19917;-90
2023/07/22 04:10:17;;;;;;;;;;;15.20;74.70;;;;;;4958656;28;19922;-89
2023/07/22 04:12:42;;;;;;;;;;;15.20;74.70;;;;;;4967635;28;19918;-89
2023/07/22 04:15:08;;;;;;;;;;;15.20;75.00;;;;;;4972732;28;19910;-90
2023/07/22 04:17:33;;;;;;;;;;;15.20;75.10;;;;;;4972301;28;19968;-90
2023/07/22 04:19:59;;;;;;;;;;;15.30;74.90;;;;;;4961779;28;19910;-89
2023/07/22 04:22:24;;;;;;;;;;;15.30;74.30;;;;;;4959724;28;19995;-90
2023/07/22 04:24:50;;;;;;;;;;;15.30;75.10;;;;;;4957438;28;19914;-90
2023/07/22 04:27:16;;;;;;;;;;;15.30;74.70;;;;;;4989205;28;19929;-90
2023/07/22 04:29:42;;;;;;;;;;;15.40;74.00;;;;;;4957536;28;20382;-89
2023/07/22 04:32:08;;;;;;;;;;;15.40;74.30;;;;;;5000744;28;19898;-89
2023/07/22 04:34:34;;;;;;;;;;;15.40;74.30;;;;;;4988034;28;20272;-90
2023/07/22 04:37:00;;;;;;;;;;;15.50;74.00;;;;;;4962568;28;20009;-90
2023/07/22 04:39:25;;;;;;;;;;;15.50;74.00;;;;;;4975146;28;20641;-89
2023/07/22 04:41:51;;;;;;;;;;;15.60;73.40;;;;;;5035369;28;20233;-90
2023/07/22 04:44:17;;;;;;;;;;;15.50;74.50;;;;;;4981559;28;19978;-90
2023/07/22 04:46:42;;;;;;;;;;;15.50;74.10;;;;;;4972006;28;20305;-90
2023/07/22 04:49:08;;;;;;;;;;;15.50;74.90;;;;;;4959997;28;19914;-89
2023/07/22 04:51:34;;;;;;;;;;;15.60;75.40;;;;;;4960829;28;20047;-89
2023/07/22 04:53:59;;;;;;;;;;;15.60;75.40;;;;;;4979147;28;19910;-89
2023/07/22 04:56:25;;;;;;;;;;;15.60;75.30;;;;;;4964912;28;19954;-90
2023/07/22 04:58:50;;;;;;;;;;;15.70;74.20;;;;;;4966187;28;19914;-90
2023/07/22 05:01:16;;;;;;;;;;;15.60;74.10;;;;;;4954278;28;19917;-89
2023/07/22 05:03:41;;;;;;;;;;;15.60;73.70;;;;;;4966021;28;19914;-89
2023/07/22 05:06:08;;;;;;;;;;;15.70;73.60;;;;;;4973093;28;20287;-91
2023/07/22 05:08:34;;;;;;;;;;;15.80;72.60;;;;;;4959218;28;19980;-89
2023/07/22 05:10:59;;;;;;;;;;;15.70;71.90;;;;;;4961419;28;19986;-90
2023/07/22 05:13:25;;;;;;;;;;;15.80;72.50;;;;;;4970906;28;20461;-90
2023/07/22 05:15:50;;;;;;;;;;;15.80;72.50;;;;;;4972349;28;19911;-90
2023/07/22 05:18:15;;;;;;;;;;;15.90;71.80;;;;;;4979153;28;19964;-90
2023/07/22 05:20:42;;;;;;;;;;;16.00;71.40;;;;;;4981591;28;20007;-89
2023/07/22 05:23:07;;;;;;;;;;;16.00;71.00;;;;;;4971841;28;19918;-90
2023/07/22 05:25:32;;;;;;;;;;;16.00;71.20;;;;;;4958588;28;19915;-89
2023/07/22 05:27:58;;;;;;;;;;;16.10;71.80;;;;;;4978895;28;19936;-90
2023/07/22 05:30:23;;;;;;;;;;;16.10;71.50;;;;;;4972290;28;19914;-89
2023/07/22 05:32:51;;;;;;;;;;;16.10;70.90;;;;;;4974715;28;19974;-89
2023/07/22 05:35:17;;;;;;;;;;;16.20;70.70;;;;;;4970538;28;19915;-89
2023/07/22 05:37:42;;;;;;;;;;;16.10;71.60;;;;;;4968243;28;20013;-89
2023/07/22 05:40:08;;;;;;;;;;;16.20;70.60;;;;;;4974315;28;19993;-90
2023/07/22 05:42:34;;;;;;;;;;;16.20;70.90;;;;;;4956666;28;19910;-89
2023/07/22 05:45:00;;;;;;;;;;;16.10;70.70;;;;;;4972573;28;19917;-90
2023/07/22 05:47:25;;;;;;;;;;;16.10;70.50;;;;;;4965712;28;19964;-89
2023/07/22 05:49:50;;;;;;;;;;;16.10;70.30;;;;;;4981672;28;19918;-89
2023/07/22 05:52:16;;;;;;;;;;;16.20;69.70;;;;;;4980438;28;19937;-89
2023/07/22 05:54:42;;;;;;;;;;;16.30;70.00;;;;;;4964856;28;19910;-89
2023/07/22 05:57:08;;;;;;;;;;;16.30;69.60;;;;;;4979244;28;19921;-89
2023/07/22 05:59:35;;;;;;;;;;;16.50;68.90;;;;;;4986802;28;20291;-90
2023/07/22 06:02:02;;;;;;;;;;;16.50;69.30;;;;;;4958907;28;19910;-90
2023/07/22 06:04:28;;;;;;;;;;;16.50;69.50;;;;;;4957836;28;20405;-89
2023/07/22 06:06:53;;;;;;;;;;;16.50;68.80;;;;;;4974105;28;19914;-89
2023/07/22 06:09:20;;;;;;;;;;;16.50;68.90;;;;;;4964849;28;19914;-89
2023/07/22 06:11:45;;;;;;;;;;;16.60;68.30;;;;;;4973553;28;19914;-89
2023/07/22 06:14:11;;;;;;;;;;;16.60;68.30;;;;;;4972291;28;20432;-89
2023/07/22 06:16:36;;;;;;;;;;;16.60;68.00;;;;;;4969035;28;20379;-89
2023/07/22 06:19:02;;;;;;;;;;;16.70;67.40;;;;;;4966977;28;19914;-90
2023/07/22 06:21:28;;;;;;;;;;;16.70;67.50;;;;;;4973414;28;19922;-89
2023/07/22 06:23:53;;;;;;;;;;;16.70;67.50;;;;;;4976151;28;19918;-89
2023/07/22 06:26:18;;;;;;;;;;;16.90;67.20;;;;;;4968529;28;19926;-89
2023/07/22 06:28:44;;;;;;;;;;;16.80;67.60;;;;;;4966025;28;19914;-90
2023/07/22 06:31:09;;;;;;;;;;;17.00;67.70;;;;;;4962562;28;20173;-89
2023/07/22 06:33:36;;;;;;;;;;;17.00;67.10;;;;;;4962243;28;19954;-89
2023/07/22 06:36:01;;;;;;;;;;;17.00;67.50;;;;;;4967161;28;19914;-88
2023/07/22 06:38:26;;;;;;;;;;;17.00;67.60;;;;;;4966537;28;19926;-89
2023/07/22 06:40:53;;;;;;;;;;;17.10;67.70;;;;;;4978283;28;19917;-89
2023/07/22 06:43:18;;;;;;;;;;;17.20;67.20;;;;;;4970015;28;19949;-89
2023/07/22 06:45:44;;;;;;;;;;;17.10;67.10;;;;;;4960635;28;19917;-89
2023/07/22 06:48:09;;;;;;;;;;;17.10;66.90;;;;;;4979664;28;19910;-90
2023/07/22 06:50:34;;;;;;;;;;;17.20;66.90;;;;;;4977479;28;19945;-90
2023/07/22 06:53:00;;;;;;;;;;;17.20;67.40;;;;;;4982619;28;19914;-89
2023/07/22 06:55:25;;;;;;;;;;;17.30;67.40;;;;;;4962952;28;19917;-90
2023/07/22 06:57:51;;;;;;;;;;;17.40;66.30;;;;;;4962083;28;19917;-89
2023/07/22 07:00:16;;;;;;;;;;;17.40;66.30;;;;;;4963168;28;19914;-90
2023/07/22 07:02:42;;;;;;;;;;;17.40;67.00;;;;;;4976160;28;20383;-89
2023/07/22 07:05:07;;;;;;;;;;;17.50;66.30;;;;;;4970918;28;19910;-89
2023/07/22 07:07:33;;;;;;;;;;;17.60;66.60;;;;;;4975089;28;19937;-89
2023/07/22 07:09:58;;;;;;;;;;;17.60;66.50;;;;;;4982713;28;19962;-90
2023/07/22 07:12:24;;;;;;;;;;;17.80;65.90;;;;;;4966303;28;19940;-88
2023/07/22 07:14:53;;;;;;;;;;;17.90;64.80;;;;;;4973714;28;19917;-89
2023/07/22 07:17:19;;;;;;;;;;;17.90;65.20;;;;;;4972781;28;19918;-89
2023/07/22 07:19:44;;;;;;;;;;;18.00;65.40;;;;;;4965115;28;19914;-89
2023/07/22 07:22:10;;;;;;;;;;;17.90;64.90;;;;;;4968928;28;20287;-89
2023/07/22 07:24:35;;;;;;;;;;;17.90;64.60;;;;;;4994900;28;19944;-89
2023/07/22 07:27:02;;;;;;;;;;;18.00;64.90;;;;;;4970192;28;19918;-89
2023/07/22 07:29:27;;;;;;;;;;;18.00;64.00;;;;;;4969550;28;19918;-89
2023/07/22 07:31:52;;;;;;;;;;;18.10;64.00;;;;;;4970717;28;20193;-89
2023/07/22 07:34:18;;;;;;;;;;;18.10;63.40;;;;;;4968372;28;19954;-89
2023/07/22 07:36:43;;;;;;;;;;;18.20;63.50;;;;;;4971589;28;19937;-88
2023/07/22 07:39:10;;;;;;;;;;;18.40;62.90;;;;;;4969155;28;21499;-89
2023/07/22 07:41:37;;;;;;;;;;;18.40;63.60;;;;;;4964142;28;19977;-89
2023/07/22 07:44:03;;;;;;;;;;;18.50;63.50;;;;;;4972984;28;19922;-88
2023/07/22 07:46:29;;;;;;;;;;;18.60;62.30;;;;;;5006107;28;19966;-88
2023/07/22 07:48:56;;;;;;;;;;;18.60;61.80;;;;;;4983570;28;20375;-89
2023/07/22 07:51:22;;;;;;;;;;;18.60;61.50;;;;;;4979596;28;19945;-88
2023/07/22 07:53:47;;;;;;;;;;;18.60;61.50;;;;;;4978918;28;19918;-89
2023/07/22 07:56:13;;;;;;;;;;;18.70;61.50;;;;;;4988685;28;20425;-88
2023/07/22 07:58:39;;;;;;;;;;;18.80;61.00;;;;;;4971017;28;20363;-89
2023/07/22 08:01:05;;;;;;;;;;;18.80;60.90;;;;;;4978493;28;19917;-89
2023/07/22 08:03:31;;;;;;;;;;;18.90;61.20;;;;;;4963984;28;20022;-88
2023/07/22 08:05:56;;;;;;;;;;;18.90;60.70;;;;;;4973752;28;19941;-88
2023/07/22 08:08:22;;;;;;;;;;;18.90;60.60;;;;;;4967212;28;19914;-88
2023/07/22 08:10:48;;;;;;;;;;;18.90;60.10;;;;;;4980444;28;19921;-89
2023/07/22 08:13:14;;;;;;;;;;;19.00;60.00;;;;;;4966690;28;19910;-88
2023/07/22 08:15:41;;;;;;;;;;;19.00;60.30;;;;;;4971614;28;19960;-89
2023/07/22 08:18:07;;;;;;;;;;;19.00;60.90;;;;;;4968795;28;20399;-89
2023/07/22 08:20:32;;;;;;;;;;;19.20;61.30;;;;;;4963954;28;19941;-89
2023/07/22 08:22:58;;;;;;;;;;;19.40;59.10;;;;;;4964440;28;19918;-89
2023/07/22 08:25:23;;;;;;;;;;;19.50;59.50;;;;;;4974173;28;20009;-89
2023/07/22 08:27:48;;;;;;;;;;;19.50;58.60;;;;;;4978916;28;19918;-89
2023/07/22 08:30:14;;;;;;;;;;;19.60;57.90;;;;;;4958108;28;20001;-88
2023/07/22 08:32:39;;;;;;;;;;;19.60;58.30;;;;;;4972276;28;19921;-89
2023/07/22 08:35:06;;;;;;;;;;;19.60;57.90;;;;;;5033469;28;19917;-89
2023/07/22 08:37:32;;;;;;;;;;;19.60;56.90;;;;;;4964253;28;20063;-89
2023/07/22 08:39:58;;;;;;;;;;;19.60;57.20;;;;;;4973935;28;19963;-89
2023/07/22 08:42:23;;;;;;;;;;;19.60;57.80;;;;;;4957990;28;20382;-89
2023/07/22 08:44:52;;;;;;;;;;;19.60;57.70;;;;;;4960578;28;19914;-89
2023/07/22 08:47:19;;;;;;;;;;;19.60;57.30;;;;;;4978251;28;19910;-89
2023/07/22 08:49:50;;;;;;;;;;;19.70;57.40;;;;;;4986323;28;19960;-89
2023/07/22 08:52:15;;;;;;;;;;;19.80;57.10;;;;;;4974795;28;20017;-89
2023/07/22 08:54:41;;;;;;;;;;;19.70;57.30;;;;;;4968952;28;19957;-89
2023/07/22 08:57:08;;;;;;;;;;;19.80;56.00;;;;;;4970315;28;19914;-90
2023/07/22 08:59:33;;;;;;;;;;;19.90;57.30;;;;;;5012469;28;20000;-89
2023/07/22 09:01:59;;;;;;;;;;;20.10;55.70;;;;;;4972792;28;19910;-89
2023/07/22 09:04:24;;;;;;;;;;;20.20;55.90;;;;;;4973253;28;20297;-89
2023/07/22 09:06:50;;;;;;;;;;;20.10;56.60;;;;;;4968157;28;19910;-89
2023/07/22 09:09:16;;;;;;;;;;;20.10;55.80;;;;;;4963338;28;19918;-89
2023/07/22 09:11:42;;;;;;;;;;;20.20;56.30;;;;;;4968441;28;19910;-89
2023/07/22 09:14:08;;;;;;;;;;;20.30;55.70;;;;;;4976177;28;20438;-90
2023/07/22 09:16:33;;;;;;;;;;;20.20;55.00;;;;;;4988725;28;20016;-89
2023/07/22 09:18:59;;;;;;;;;;;20.20;55.90;;;;;;4961896;28;20172;-90
2023/07/22 09:21:24;;;;;;;;;;;20.20;55.80;;;;;;4959249;28;19914;-89
2023/07/22 09:23:50;;;;;;;;;;;20.10;55.10;;;;;;4969503;28;19942;-88
2023/07/22 09:26:17;;;;;;;;;;;20.20;55.80;;;;;;4955304;28;19972;-88
2023/07/22 09:28:52;;;;;;;;;;;20.20;55.40;;;;;;4968551;28;19960;-87
2023/07/22 09:31:18;;;;;;;;;;;20.30;54.10;;;;;;4968811;28;19914;-88
2023/07/22 09:33:44;;;;;;;;;;;20.20;55.60;;;;;;4958441;28;20318;-88
2023/07/22 09:36:09;;;;;;;;;;;20.20;55.60;;;;;;4972346;28;19921;-88
2023/07/22 09:38:35;;;;;;;;;;;20.30;54.90;;;;;;4976275;28;19922;-88
2023/07/22 09:41:00;;;;;;;;;;;20.40;55.60;;;;;;4979010;28;19914;-88
2023/07/22 09:43:26;;;;;;;;;;;20.40;55.60;;;;;;4962732;28;19914;-89
2023/07/22 09:45:53;;;;;;;;;;;20.40;56.00;;;;;;4973735;28;19918;-88
2023/07/22 09:48:20;;;;;;;;;;;20.50;56.30;;;;;;4970568;28;19968;-89
2023/07/22 09:50:46;;;;;;;;;;;20.50;55.10;;;;;;4966363;28;20360;-88
2023/07/22 09:53:15;;;;;;;;;;;20.50;55.40;;;;;;4978400;28;20068;-88
2023/07/22 09:55:40;;;;;;;;;;;20.50;55.50;;;;;;4982966;28;19913;-89
2023/07/22 09:58:08;;;;;;;;;;;20.50;54.30;;;;;;5036151;28;19925;-88
2023/07/22 10:00:34;;;;;;;;;;;20.60;54.00;;;;;;4949737;28;19949;-89
2023/07/22 10:03:00;;;;;;;;;;;20.70;53.80;;;;;;4970705;28;20375;-88
2023/07/22 10:05:26;;;;;;;;;;;20.80;52.80;;;;;;4958940;28;19921;-88
2023/07/22 10:07:53;;;;;;;;;;;20.80;53.10;;;;;;4970498;28;20240;-88
2023/07/22 10:10:20;;;;;;;;;;;21.00;53.80;;;;;;4966791;28;20007;-89
2023/07/22 10:12:46;;;;;;;;;;;21.20;52.00;;;;;;4964545;28;19915;-88
2023/07/22 10:15:12;;;;;;;;;;;21.50;52.20;;;;;;4974857;28;19945;-89
2023/07/22 10:17:38;;;;;;;;;;;21.50;51.20;;;;;;4992992;28;19965;-88
2023/07/22 10:20:07;;;;;;;;;;;21.60;49.20;;;;;;4969864;28;20398;-89
2023/07/22 10:22:34;;;;;;;;;;;21.60;50.40;;;;;;4961409;28;20020;-89
2023/07/22 10:25:01;;;;;;;;;;;21.60;51.60;;;;;;4972889;28;20060;-88
2023/07/22 10:27:27;;;;;;;;;;;21.70;52.30;;;;;;4958757;28;19922;-89
2023/07/22 10:29:54;;;;;;;;;;;21.60;50.60;;;;;;4969205;28;20059;-88
2023/07/22 10:32:19;;;;;;;;;;;21.60;50.50;;;;;;4976488;28;19922;-88
2023/07/22 10:34:44;;;;;;;;;;;21.70;51.00;;;;;;4973546;28;19914;-89
2023/07/22 10:37:11;;;;;;;;;;;21.70;50.20;;;;;;4961482;28;19922;-88
2023/07/22 10:39:37;;;;;;;;;;;21.80;51.20;;;;;;4978849;28;19941;-88
2023/07/22 10:42:05;;;;;;;;;;;21.80;50.50;;;;;;4966883;28;19940;-88
2023/07/22 10:44:32;;;;;;;;;;;21.80;50.90;;;;;;4973429;28;19922;-89
2023/07/22 10:46:58;;;;;;;;;;;21.80;50.10;;;;;;4985246;28;19952;-89
2023/07/22 10:49:24;;;;;;;;;;;21.90;51.20;;;;;;4983113;28;20286;-88
2023/07/22 10:51:50;;;;;;;;;;;21.90;50.30;;;;;;4961178;28;19997;-88
2023/07/22 10:54:42;;;;;;;;;;;22.00;50.50;;;;;;4965551;28;19918;-89
2023/07/22 10:57:22;;;;;;;;;;;21.90;50.20;;;;;;4964981;28;19913;-89
2023/07/22 10:59:51;;;;;;;;;;;21.80;50.40;;;;;;4977593;28;19945;-89
2023/07/22 11:02:27;;;;;;;;;;;21.60;50.30;;;;;;4967412;28;19940;-89
2023/07/22 11:04:52;;;;;;;;;;;21.50;50.80;;;;;;4964659;28;19922;-89
2023/07/22 11:07:32;;;;;;;;;;;21.40;51.10;;;;;;4960808;28;19916;-89
2023/07/22 11:09:57;;;;;;;;;;;21.40;52.30;;;;;;4960186;28;19910;-90
2023/07/22 11:12:24;;;;;;;;;;;21.60;51.60;;;;;;4965760;28;20025;-89
2023/07/22 11:14:51;;;;;;;;;;;21.70;52.60;;;;;;4978187;28;19957;-90
2023/07/22 11:17:17;;;;;;;;;;;21.90;50.50;;;;;;4978674;28;19931;-90
2023/07/22 11:19:43;;;;;;;;;;;22.10;51.50;;;;;;4974984;28;19914;-89
2023/07/22 11:22:08;;;;;;;;;;;22.10;50.20;;;;;;5048253;28;20366;-89
2023/07/22 11:24:35;;;;;;;;;;;22.10;49.20;;;;;;4981990;28;19918;-89
2023/07/22 11:27:02;;;;;;;;;;;22.20;50.60;;;;;;4982083;28;20371;-89
2023/07/22 11:29:28;;;;;;;;;;;22.40;49.80;;;;;;4960091;28;19914;-89
2023/07/22 11:31:53;;;;;;;;;;;22.40;48.70;;;;;;4975360;28;19914;-88
2023/07/22 11:34:20;;;;;;;;;;;22.50;47.60;;;;;;4969587;28;19920;-88
2023/07/22 11:36:46;;;;;;;;;;;22.40;48.10;;;;;;4976721;28;19925;-89
2023/07/22 11:39:13;;;;;;;;;;;22.40;50.60;;;;;;4971894;28;19933;-90
2023/07/22 11:41:41;;;;;;;;;;;22.50;48.10;;;;;;4990060;28;20092;-88
2023/07/22 11:44:12;;;;;;;;;;;22.40;47.30;;;;;;4969924;28;19968;-89
2023/07/22 11:46:57;;;;;;;;;;;22.30;47.30;;;;;;4975119;28;19914;-89
2023/07/22 11:49:32;;;;;;;;;;;22.40;46.50;;;;;;4963518;28;19943;-90
2023/07/22 11:52:02;;;;;;;;;;;22.40;47.60;;;;;;4958046;28;19917;-89
2023/07/22 11:54:28;;;;;;;;;;;22.40;47.20;;;;;;4964663;28;20006;-88
2023/07/22 11:56:54;;;;;;;;;;;22.60;46.50;;;;;;4969720;28;20351;-89
2023/07/22 11:59:52;;;;;;;;;;;22.80;46.60;;;;;;4971821;28;19922;-88
2023/07/22 12:02:25;;;;;;;;;;;22.90;46.40;;;;;;4999516;28;19921;-89
2023/07/22 12:04:58;;;;;;;;;;;22.80;46.40;;;;;;4972926;28;19961;-89
2023/07/22 12:07:30;;;;;;;;;;;22.70;47.40;;;;;;4964001;28;19918;-88
2023/07/22 12:09:57;;;;;;;;;;;23.00;46.90;;;;;;4979745;28;19922;-88
2023/07/22 12:12:58;;;;;;;;;;;23.10;46.80;;;;;;4982229;28;19914;-89
2023/07/22 12:15:24;;;;;;;;;;;23.10;45.40;;;;;;5019800;28;19933;-88
2023/07/22 12:17:59;;;;;;;;;;;23.00;46.40;;;;;;4986185;28;19910;-89
2023/07/22 12:20:26;;;;;;;;;;;23.00;46.70;;;;;;4965176;28;19918;-89
2023/07/22 12:22:52;;;;;;;;;;;23.00;46.50;;;;;;4966433;28;19936;-89
2023/07/22 12:25:18;;;;;;;;;;;23.10;46.90;;;;;;4979713;28;19914;-89
2023/07/22 12:27:43;;;;;;;;;;;23.10;46.20;;;;;;4981088;28;20005;-90
2023/07/22 12:30:09;;;;;;;;;;;23.30;45.60;;;;;;4969597;28;19949;-90
2023/07/22 12:32:34;;;;;;;;;;;23.10;45.40;;;;;;4970253;28;19923;-88
2023/07/22 12:35:00;;;;;;;;;;;23.10;44.70;;;;;;4970276;28;19921;-89
2023/07/22 12:37:26;;;;;;;;;;;23.10;46.20;;;;;;4959804;28;20071;-89
2023/07/22 12:39:51;;;;;;;;;;;23.10;46.20;;;;;;4975534;28;19925;-88
2023/07/22 12:42:17;;;;;;;;;;;23.00;46.20;;;;;;4962093;28;19960;-89
2023/07/22 12:44:42;;;;;;;;;;;23.00;46.00;;;;;;4969541;28;19926;-88
2023/07/22 12:47:08;;;;;;;;;;;23.00;45.50;;;;;;5042453;28;19914;-89
2023/07/22 12:49:33;;;;;;;;;;;23.10;45.70;;;;;;4972553;28;19911;-89
2023/07/22 12:52:03;;;;;;;;;;;23.00;44.40;;;;;;4969376;28;19959;-88
2023/07/22 12:54:29;;;;;;;;;;;23.00;45.60;;;;;;4967234;28;19985;-89
2023/07/22 12:56:55;;;;;;;;;;;23.10;44.70;;;;;;4966568;28;19945;-88
2023/07/22 12:59:20;;;;;;;;;;;23.30;44.50;;;;;;4972147;28;19920;-89
2023/07/22 13:01:45;;;;;;;;;;;23.30;43.70;;;;;;4967954;28;19965;-90
2023/07/22 13:04:11;;;;;;;;;;;23.40;43.10;;;;;;4963241;28;19937;-89
2023/07/22 13:06:37;;;;;;;;;;;23.60;42.80;;;;;;4983684;28;19918;-89
2023/07/22 13:09:03;;;;;;;;;;;23.60;42.20;;;;;;5020984;28;20374;-89
2023/07/22 13:11:29;;;;;;;;;;;23.60;42.00;;;;;;4976950;28;19924;-89
2023/07/22 13:13:54;;;;;;;;;;;23.70;42.30;;;;;;4970572;28;19922;-89
2023/07/22 13:16:20;;;;;;;;;;;23.70;42.20;;;;;;4969674;28;19925;-88
2023/07/22 13:18:45;;;;;;;;;;;23.80;43.00;;;;;;4966056;28;20153;-89
2023/07/22 13:21:10;;;;;;;;;;;24.00;42.80;;;;;;4964285;28;20010;-89
2023/07/22 13:23:38;;;;;;;;;;;23.90;41.80;;;;;;4977027;28;20379;-89
2023/07/22 13:26:04;;;;;;;;;;;23.80;42.80;;;;;;4983687;28;19992;-89
2023/07/22 13:28:29;;;;;;;;;;;23.50;42.60;;;;;;4971630;28;20371;-89
2023/07/22 13:30:55;;;;;;;;;;;23.50;43.60;;;;;;4964689;28;20375;-88
2023/07/22 13:33:20;;;;;;;;;;;23.40;43.20;;;;;;4965896;28;19914;-89
2023/07/22 13:35:46;;;;;;;;;;;23.30;44.40;;;;;;4986694;28;19918;-89
2023/07/22 13:38:11;;;;;;;;;;;23.50;43.80;;;;;;4970534;28;19939;-89
2023/07/22 13:40:36;;;;;;;;;;;23.70;44.30;;;;;;4961526;28;19917;-89
2023/07/22 13:43:02;;;;;;;;;;;23.70;43.40;;;;;;4957542;28;20355;-89
2023/07/22 13:45:27;;;;;;;;;;;23.60;43.50;;;;;;4972569;28;20362;-89
2023/07/22 13:47:53;;;;;;;;;;;23.60;44.50;;;;;;4960137;28;20007;-89
2023/07/22 13:50:18;;;;;;;;;;;23.60;44.50;;;;;;4958551;28;20402;-90
2023/07/22 13:52:44;;;;;;;;;;;23.60;44.20;;;;;;4966431;28;19949;-89
2023/07/22 13:55:10;;;;;;;;;;;23.60;44.90;;;;;;4959012;28;20163;-89
2023/07/22 13:57:36;;;;;;;;;;;23.50;43.30;;;;;;4963517;28;19915;-89
2023/07/22 14:00:01;;;;;;;;;;;23.60;44.40;;;;;;4972232;28;19964;-90
2023/07/22 14:02:27;;;;;;;;;;;23.60;43.00;;;;;;4965077;28;19965;-89
2023/07/22 14:04:52;;;;;;;;;;;23.60;43.50;;;;;;4966349;28;19968;-90
2023/07/22 14:07:18;;;;;;;;;;;23.70;44.10;;;;;;4970854;28;19914;-89
2023/07/22 14:09:43;;;;;;;;;;;23.80;44.00;;;;;;4960916;28;19914;-89
2023/07/22 14:12:09;;;;;;;;;;;23.90;42.20;;;;;;4974063;28;20325;-90